This is the latest recevied weather packets stored in our database for station/object KQ4KX. If no packets are shown the sender has not sent any weather packets the latest 10 day(s).
| Time | Temp. | Humidity | Pressure | Rain* | Wind** | Luminosity | Snow |
|---|---|---|---|---|---|---|---|
| 1787962091 | 25° C | 99% | 1016.4 hPa | 0 mm | - | - | - |
| 1787961969 | 25° C | 99% | 1016.2 hPa | 0 mm | - | - | - |
| 1787961760 | 25° C | 99% | 1016.2 hPa | 0 mm | - | - | - |
| 1787961460 | 24.44° C | 99% | 1016.3 hPa | 0 mm | - | - | - |
| 1787961160 | 24.44° C | 98% | 1016.4 hPa | 0 mm | - | - | - |
| 1787960861 | 24.44° C | 98% | 1016.4 hPa | 0 mm | - | - | - |
| 1787960230 | 24.44° C | 98% | 1016.4 hPa | 0 mm | - | - | - |
| 1787960026 | 24.44° C | 99% | 1016.2 hPa | 0 mm | - | - | - |
| 1787959900 | 24.44° C | 99% | 1016.2 hPa | 0 mm | - | - | - |
| 1787959600 | 24.44° C | 99% | 1016.2 hPa | 0.25 mm | - | - | - |
| 1787959109 | 24.44° C | 99% | 1016.2 hPa | 0.76 mm | - | - | - |
| 1787958970 | 24.44° C | 99% | 1016.2 hPa | 0.76 mm | - | - | - |
| 1787958444 | 24.44° C | 98% | 1015.8 hPa | 3.56 mm | - | - | - |
| 1787958370 | 24.44° C | 98% | 1015.8 hPa | 3.56 mm | - | - | - |
| 1787958204 | 24.44° C | 98% | 1015.9 hPa | 4.32 mm | - | - | - |
| 1787958072 | 24.44° C | 98% | 1015.9 hPa | 4.32 mm | - | - | - |
| 1787957770 | 24.44° C | 98% | 1016 hPa | 4.83 mm | - | - | - |
| 1787957141 | 24.44° C | 98% | 1015.9 hPa | 4.83 mm | - | - | - |
| 1787956972 | 24.44° C | 97% | 1015.8 hPa | 4.83 mm | - | - | - |
| 1787956840 | 24.44° C | 97% | 1015.8 hPa | 4.83 mm | - | - | - |
| 1787956210 | 24.44° C | 97% | 1016.2 hPa | 4.57 mm | - | - | - |
| 1787955994 | 24.44° C | 97% | 1016.4 hPa | 4.83 mm | - | - | - |
| 1787955880 | 24.44° C | 97% | 1016.4 hPa | 4.83 mm | - | - | - |
| 1787955698 | 24.44° C | 97% | 1016.9 hPa | 4.57 mm | - | - | - |
| 1787955551 | 24.44° C | 97% | 1016.9 hPa | 4.57 mm | - | - | - |
* Rain latest hour (hover to see other rain measurements)
** Current wind speed in m/s (hover to see current wind gust speed)